Relevés horaires Chievres (Belgique)


Relevés horaires à Chievres - Lundi 12 Juin 2017
Heure UTC1 Température [°C] Vent [km/h] Hum. [%] Pres.4 [hPa] Visi. [Km] Nébu. [octa] Préc.5 [mm] Cond.
2m. Res. Ros. Dir.2 Vit. Moy. Raf.3
23:00 11.2 11.2 8.3 SO 3.7 -- 5.6 82 1020.7(0.4/3h) 15 -- -- --
22:00 11.4 11.4 8.3 SO 3.7 -- 5.6 81 1020.6(0.4/3h) 16 -- -- --
21:00 13.6 13.6 8.4 OSO 3.7 -- 13.0 71 1020.3(0.4/3h) 17 -- -- --
20:00 14.8 14.8 8.4 OSO 5.6 -- 9.3 65 1020.1(0.2/3h) 19 -- -- --
19:00 15.6 15.6 8.5 O 3.7 -- 13.0 63 1020(0.1/3h) 20 -- -- --
18:00 16.6 16.6 8.4 OSO 7.4 -- 18.5 58 1019.8(0.0/3h) 20 -- -- --
17:00 16.6 16.6 8.2 O 9.3 -- 16.7 58 1019.7(0.0/3h) 20 -- -- --
16:00 17.2 17.2 8.5 O 9.3 -- 18.5 57 1019.7(0.2/3h) 18 -- -- --
15:00 17.2 17.1 8.5 O 11.1 -- 18.5 57 1019.8(0.3/3h) 19 -- -- --
14:00 17.2 17.2 9.0 O 9.3 -- 18.5 59 1019.8(0.5/3h) 18 -- -- --
13:00 17.3 17.2 8.4 OSO 11.1 -- 18.5 56 1019.6(0.5/3h) 15 -- -- --
12:00 16.6 16.4 8.3 O 11.1 -- 20.4 58 1019.6(0.8/3h) 16 -- -- --
11:00 16.8 16.5 8.4 OSO 13.0 -- 20.4 58 1019.3(0.8/3h) 17 -- -- --
10:00 16.7 16.5 8.7 OSO 11.1 -- 18.5 59 1019(0.8/3h) 16 -- -- --
09:00 16.4 16.4 9.2 OSO 9.3 -- 18.5 62 1018.7(1.0/3h) 14 -- -- --
08:00 15.0 14.5 8.6 OSO 11.1 -- 16.7 66 1018.6(0.8/3h) 18 -- -- --
07:00 14.7 14.3 9.8 OSO 9.3 -- 16.7 72 1018.2(0.7/3h) 13 -- -- --
06:00 13.6 13 10.3 OSO 9.3 -- 13.0 80 1017.7(0.7/3h) 14 -- -- --
05:00 12.4 11.9 10.1 OSO 7.4 -- 9.3 86 1017.7(0.8/3h) 10 -- -- --
04:00 11.3 11.3 9.9 SO 3.7 -- 9.3 91 1017.5(0.6/3h) 9 -- -- --
03:00 12.3 12.2 10.1 OSO 5.6 -- 13.0 86 1017.1(0.2/3h) 12 -- -- --
02:00 12.5 12.1 9.6 SO 7.4 -- 11.1 82 1016.8(0.1/3h) 14 -- -- --
01:00 13.8 13.6 9.0 OSO 7.4 -- 13.0 73 1016.7(0.3/3h) 18 -- -- --
00:00 14.6 14.5 8.7 O 7.4 -- 20.4 68 1016.7(0.8/3h) 19 -- -- --

1 Coordinated Universal Time. Actuellement il est 15:00 locale et 14:00 UTC.

2 Le vent souffle depuis la direction indiquée vers la direction oposée.

3 Les rafales max. sont disponible 40 min après l'heure du relevé.

4 Pour les stations d'altitude (plus de 600m) le géopotentiel du niveau le plus proche de la pression obligatoire est indiqué.

5 Les stations disposant d'un diffuseur peuvent indiquer "trace". Cela signifie que des précipitations ont touchés le sol mais que la quantité est inférieure à 0.1 mm.

Récapitulatif de la journée
Température [°C] Vent [km/h] Ensoleillement4 [h] Precipitations totale5 [mm] Pression [Hpa]
Min1 Max.2 Moy.3 Max. Min Max.
11.3 18.1 0 20.4 0 h 0 min 0 1016.7 1020.7

1 Température minimale relevée entre 18:00 UTC la veille et 18:00 UTC le jour donné.

2 Température maximale relevée entre 06:00 UTC le jour donné et 06:00 UTC le lendemain.

3 Vent moyen de la journée basé sur les relevés horaires.

4 Ensoleillement en heures relevé entre 06:00 UTC la veille et 06:00 UTC le jour donné.

5 Précipitations totales tombées entre 06:00 UTC la jour donné et 06:00 UTC le lendemain.

Graphiques horaires